createdAt,value
2022-09-27T00:00:52.521Z,3.93
2022-09-27T00:03:23.788Z,6.63
2022-09-27T00:06:28.699Z,4.17
2022-09-27T00:08:59.969Z,2.63
2022-09-27T00:11:34.335Z,4.27
2022-09-27T00:14:07.307Z,2.67
2022-09-27T00:16:40.186Z,3.63
2022-09-27T00:19:15.240Z,3.73
2022-09-27T00:21:47.687Z,3.33
2022-09-27T00:24:22.066Z,2.80
2022-09-27T00:26:53.374Z,3.97
2022-09-27T00:29:25.067Z,2.43
2022-09-27T00:31:56.818Z,4.00
2022-09-27T00:34:28.088Z,3.20
2022-09-27T00:36:59.388Z,2.60
2022-09-27T00:39:30.642Z,5.83
2022-09-27T00:42:01.918Z,3.53
2022-09-27T00:44:33.675Z,3.40
2022-09-27T00:47:35.994Z,1.73
2022-09-27T00:50:22.946Z,2.40
2022-09-27T00:53:04.327Z,1.73
2022-09-27T00:55:44.562Z,2.47
2022-09-27T00:58:19.421Z,3.20
2022-09-27T01:00:53.878Z,3.43
2022-09-27T01:03:57.033Z,2.40
2022-09-27T01:06:28.709Z,2.10
2022-09-27T01:09:00.151Z,2.60
2022-09-27T01:11:43.558Z,3.03
2022-09-27T01:14:33.686Z,2.30
2022-09-27T01:17:35.753Z,2.33
2022-09-27T01:20:34.007Z,1.60
2022-09-27T01:23:48.803Z,1.40
2022-09-27T01:26:46.224Z,2.93
2022-09-27T01:29:54.548Z,1.57
2022-09-27T01:33:04.237Z,1.47
2022-09-27T01:36:37.195Z,4.33
2022-09-27T01:39:33.641Z,1.67
2022-09-27T01:42:13.034Z,3.15
2022-09-27T01:44:52.262Z,2.90
2022-09-27T01:47:31.909Z,3.13
2022-09-27T01:50:11.846Z,4.27
2022-09-27T01:52:50.240Z,2.87
2022-09-27T01:55:26.242Z,2.00
2022-09-27T01:58:28.385Z,3.97
2022-09-27T02:01:00.848Z,3.97
2022-09-27T02:03:36.038Z,4.10
2022-09-27T02:06:33.532Z,4.27
2022-09-27T02:09:16.236Z,5.83
2022-09-27T02:11:56.080Z,2.23
2022-09-27T02:14:41.596Z,2.20
2022-09-27T02:17:25.298Z,3.07
2022-09-27T02:20:33.662Z,2.50
2022-09-27T02:23:21.081Z,3.30
2022-09-27T02:26:00.463Z,2.97
2022-09-27T02:29:11.170Z,5.60
2022-09-27T02:31:42.543Z,2.43
2022-09-27T02:34:19.490Z,2.30
2022-09-27T02:36:53.354Z,4.17
2022-09-27T02:39:24.924Z,2.43
2022-09-27T02:41:58.355Z,2.83
2022-09-27T02:44:30.518Z,3.10
2022-09-27T02:47:18.178Z,3.23
2022-09-27T02:50:03.959Z,4.70
2022-09-27T02:52:48.581Z,3.38
2022-09-27T02:56:01.106Z,3.20
2022-09-27T02:58:44.958Z,3.90
2022-09-27T03:01:41.572Z,5.50
2022-09-27T03:04:23.284Z,5.85
2022-09-27T03:06:57.681Z,4.37
2022-09-27T03:09:40.809Z,5.80
2022-09-27T03:12:12.262Z,9.30
2022-09-27T03:14:43.517Z,5.97
2022-09-27T03:17:15.363Z,4.57
2022-09-27T03:19:46.747Z,4.97
2022-09-27T03:22:18.011Z,6.90
2022-09-27T03:24:49.378Z,4.47
2022-09-27T03:27:20.698Z,5.70
2022-09-27T03:29:52.023Z,5.00
2022-09-27T03:32:23.269Z,4.63
2022-09-27T03:34:55.347Z,3.63
2022-09-27T03:37:29.246Z,4.70
2022-09-27T03:40:00.757Z,11.17
2022-09-27T03:42:32.085Z,4.67
2022-09-27T03:45:03.625Z,6.03
2022-09-27T03:47:35.173Z,4.67
2022-09-27T03:50:07.113Z,4.67
2022-09-27T03:52:39.591Z,7.17
2022-09-27T03:55:12.380Z,3.87
2022-09-27T03:57:46.239Z,6.60
2022-09-27T04:00:17.972Z,4.80
2022-09-27T04:02:49.319Z,6.37
2022-09-27T04:05:20.675Z,4.63
2022-09-27T04:07:52.056Z,6.93
2022-09-27T04:10:23.465Z,7.83
2022-09-27T04:12:54.797Z,5.53
2022-09-27T04:15:26.091Z,8.20
2022-09-27T04:17:57.333Z,7.87
2022-09-27T04:20:28.612Z,8.43
2022-09-27T04:22:59.883Z,11.17
2022-09-27T04:25:32.903Z,11.27
2022-09-27T04:28:06.066Z,8.90
2022-09-27T04:30:37.438Z,8.27
2022-09-27T04:33:08.735Z,9.83
2022-09-27T04:35:58.411Z,13.77
2022-09-27T04:38:29.796Z,11.40
2022-09-27T04:41:04.064Z,13.40
2022-09-27T04:43:35.389Z,12.40
2022-09-27T04:46:06.830Z,12.30
2022-09-27T04:48:38.325Z,20.50
2022-09-27T04:51:10.374Z,15.13
2022-09-27T04:53:41.947Z,15.20
2022-09-27T04:56:15.841Z,19.57
2022-09-27T04:58:47.145Z,22.47
2022-09-27T05:01:18.490Z,21.77
2022-09-27T05:03:50.089Z,17.53
2022-09-27T05:06:21.378Z,22.97
2022-09-27T05:08:52.810Z,18.40
2022-09-27T05:11:24.937Z,23.33
2022-09-27T05:13:56.229Z,22.00
2022-09-27T05:16:30.786Z,20.33
2022-09-27T05:19:05.274Z,19.63
2022-09-27T05:21:36.624Z,21.33
2022-09-27T05:24:08.141Z,18.70
2022-09-27T05:26:39.417Z,19.63
2022-09-27T05:29:11.497Z,22.47
2022-09-27T05:31:42.769Z,26.37
2022-09-27T05:34:14.067Z,19.40
2022-09-27T05:36:47.649Z,20.03
2022-09-27T05:39:22.979Z,21.17
2022-09-27T05:41:54.641Z,17.90
2022-09-27T05:44:26.033Z,17.50
2022-09-27T05:46:57.964Z,20.57
2022-09-27T05:49:29.265Z,17.83
2022-09-27T05:52:00.737Z,16.90
2022-09-27T05:54:32.294Z,14.93
2022-09-27T05:57:03.641Z,16.37
2022-09-27T05:59:35.091Z,14.53
2022-09-27T06:02:06.785Z,11.50
2022-09-27T06:04:38.278Z,13.57
2022-09-27T06:07:10.336Z,12.90
2022-09-27T06:09:41.757Z,7.97
2022-09-27T06:12:14.306Z,8.83
2022-09-27T06:14:45.814Z,6.10
2022-09-27T06:17:17.075Z,8.67
2022-09-27T06:19:49.341Z,7.17
2022-09-27T06:22:30.357Z,8.07
2022-09-27T06:25:04.381Z,7.33
2022-09-27T06:27:35.995Z,7.73
2022-09-27T06:30:07.851Z,6.33
2022-09-27T06:32:39.219Z,6.63
2022-09-27T06:35:10.707Z,5.57
2022-09-27T06:37:54.761Z,5.10
2022-09-27T06:40:27.306Z,4.90
2022-09-27T06:43:04.543Z,4.30
2022-09-27T06:45:37.045Z,5.50
2022-09-27T06:48:10.836Z,7.70
2022-09-27T06:50:46.662Z,5.13
2022-09-27T06:53:18.331Z,4.55
2022-09-27T06:55:51.228Z,3.03
2022-09-27T06:58:40.949Z,4.30
2022-09-27T07:01:12.778Z,3.93
2022-09-27T07:03:49.168Z,9.13
2022-09-27T07:06:24.852Z,4.50
2022-09-27T07:08:56.250Z,5.88
2022-09-27T07:11:27.527Z,4.63
2022-09-27T07:13:59.432Z,3.20
2022-09-27T07:16:35.907Z,3.73
2022-09-27T07:19:08.981Z,2.63
2022-09-27T07:21:41.931Z,2.30
2022-09-27T07:24:13.443Z,2.80
2022-09-27T07:26:44.933Z,3.73
2022-09-27T07:29:16.694Z,3.37
2022-09-27T07:31:48.041Z,2.30
2022-09-27T07:34:19.568Z,3.57
2022-09-27T07:36:50.904Z,7.80
2022-09-27T07:39:23.156Z,2.83
2022-09-27T07:41:54.622Z,5.53
2022-09-27T07:44:26.474Z,2.50
2022-09-27T07:46:57.906Z,2.03
2022-09-27T07:49:29.318Z,3.07
2022-09-27T07:52:00.995Z,5.57
2022-09-27T07:54:32.327Z,3.13
2022-09-27T07:57:03.891Z,2.40
2022-09-27T07:59:35.194Z,3.13
2022-09-27T08:02:11.102Z,3.13
2022-09-27T08:04:47.150Z,3.20
2022-09-27T08:07:18.613Z,3.08
2022-09-27T08:09:49.869Z,2.20
2022-09-27T08:12:22.295Z,2.60
2022-09-27T08:14:54.603Z,4.13
2022-09-27T08:17:25.861Z,1.80
2022-09-27T08:19:57.731Z,2.73
2022-09-27T08:22:29.106Z,4.93
2022-09-27T08:25:00.494Z,2.20
2022-09-27T08:27:31.835Z,2.57
2022-09-27T08:30:04.225Z,2.07
2022-09-27T08:32:36.597Z,2.50
2022-09-27T08:35:08.617Z,2.63
2022-09-27T08:37:39.936Z,4.40
2022-09-27T08:40:17.573Z,2.40
2022-09-27T08:43:03.779Z,2.60
2022-09-27T08:45:42.096Z,1.83
2022-09-27T08:48:15.890Z,4.73
2022-09-27T08:50:48.526Z,1.97
2022-09-27T08:53:43.057Z,3.50
2022-09-27T08:56:15.696Z,1.53
2022-09-27T08:59:01.492Z,4.17
2022-09-27T09:01:34.783Z,3.72
2022-09-27T09:04:06.343Z,1.97
2022-09-27T09:07:13.279Z,1.70
2022-09-27T09:09:53.899Z,2.92
2022-09-27T09:12:47.871Z,2.63
2022-09-27T09:15:54.223Z,2.80
2022-09-27T09:18:45.327Z,1.80
2022-09-27T09:21:40.070Z,4.03
2022-09-27T09:24:21.726Z,3.00
2022-09-27T09:27:13.770Z,4.60
2022-09-27T09:30:05.363Z,3.83
2022-09-27T09:33:05.336Z,1.90
2022-09-27T09:35:45.300Z,2.27
2022-09-27T09:38:26.297Z,1.87
2022-09-27T09:41:03.711Z,2.47
2022-09-27T09:44:06.476Z,2.30
2022-09-27T09:46:45.494Z,1.13
2022-09-27T09:49:25.800Z,1.87
2022-09-27T09:52:08.995Z,3.37
2022-09-27T09:54:48.492Z,1.67
2022-09-27T09:57:33.949Z,8.07
2022-09-27T10:00:13.807Z,1.40
2022-09-27T10:02:47.706Z,3.13
2022-09-27T10:05:22.315Z,1.70
2022-09-27T10:07:57.532Z,4.00
2022-09-27T10:10:28.872Z,3.80
2022-09-27T10:13:03.194Z,1.20
2022-09-27T10:15:35.432Z,2.13
2022-09-27T10:18:15.619Z,0.77
2022-09-27T10:21:01.441Z,1.30
2022-09-27T10:23:32.848Z,1.50
2022-09-27T10:26:05.343Z,0.90
2022-09-27T10:28:38.223Z,0.70
2022-09-27T10:31:14.896Z,1.43
2022-09-27T10:33:59.509Z,0.63
2022-09-27T10:36:34.999Z,1.13
2022-09-27T10:39:07.027Z,1.55
2022-09-27T10:41:41.367Z,0.40
2022-09-27T10:44:15.643Z,1.97
2022-09-27T10:46:53.420Z,2.77
2022-09-27T10:49:26.691Z,0.80
2022-09-27T10:52:01.270Z,3.03
2022-09-27T10:54:35.520Z,2.00
2022-09-27T10:57:26.775Z,0.90
2022-09-27T11:00:22.707Z,0.87
2022-09-27T11:03:01.445Z,1.53
2022-09-27T11:05:36.857Z,1.30
2022-09-27T11:08:24.081Z,2.50
2022-09-27T11:11:16.238Z,1.33
2022-09-27T11:14:05.284Z,1.23
2022-09-27T11:16:48.445Z,1.83
2022-09-27T11:19:28.557Z,0.80
2022-09-27T11:22:09.918Z,5.67
2022-09-27T11:25:19.339Z,1.20
2022-09-27T11:28:05.289Z,1.37
2022-09-27T11:31:05.838Z,2.15
2022-09-27T11:34:03.348Z,3.23
2022-09-27T11:37:00.787Z,3.73
2022-09-27T11:40:21.933Z,1.90
2022-09-27T11:43:05.398Z,1.23
2022-09-27T11:46:13.336Z,2.83
2022-09-27T11:49:11.184Z,2.17
2022-09-27T11:51:51.600Z,3.13
2022-09-27T11:54:25.559Z,2.40
2022-09-27T11:57:07.568Z,3.23
2022-09-27T12:00:06.143Z,1.47
2022-09-27T12:03:16.210Z,2.83
2022-09-27T12:06:12.268Z,1.63
2022-09-27T12:09:02.915Z,2.70
2022-09-27T12:11:37.405Z,3.57
2022-09-27T12:14:35.227Z,1.77
2022-09-27T12:17:12.949Z,3.67
2022-09-27T12:19:54.791Z,2.27
2022-09-27T12:22:57.715Z,5.17
2022-09-27T12:25:31.369Z,3.50
2022-09-27T12:28:19.875Z,3.10
2022-09-27T12:31:27.356Z,2.97
2022-09-27T12:34:02.298Z,2.33
2022-09-27T12:36:38.769Z,1.50
2022-09-27T12:39:28.310Z,1.80
2022-09-27T12:42:08.306Z,2.80
2022-09-27T12:44:41.349Z,3.53
2022-09-27T12:47:36.032Z,2.43
2022-09-27T12:50:25.955Z,1.87
2022-09-27T12:53:19.950Z,1.07
2022-09-27T12:56:13.192Z,3.57
2022-09-27T12:59:12.573Z,1.40
2022-09-27T13:02:03.700Z,3.27
2022-09-27T13:04:50.558Z,3.30
2022-09-27T13:07:43.473Z,1.30
2022-09-27T13:10:33.365Z,2.27
2022-09-27T13:13:06.162Z,2.70
2022-09-27T13:15:39.718Z,2.73
2022-09-27T13:18:35.763Z,2.20
2022-09-27T13:21:09.404Z,3.00
2022-09-27T13:23:40.914Z,2.13
2022-09-27T13:26:22.845Z,4.20
2022-09-27T13:29:01.900Z,3.00
2022-09-27T13:31:55.065Z,2.73
2022-09-27T13:34:41.289Z,1.57
2022-09-27T13:37:45.726Z,2.75
2022-09-27T13:40:29.122Z,5.60
2022-09-27T13:43:32.882Z,3.70
2022-09-27T13:46:10.955Z,4.23
2022-09-27T13:49:15.492Z,3.37
2022-09-27T13:51:51.445Z,5.70
2022-09-27T13:54:56.520Z,4.68
2022-09-27T13:57:43.088Z,8.50
2022-09-27T14:00:20.833Z,6.47
2022-09-27T14:03:11.628Z,7.83
2022-09-27T14:05:56.666Z,7.20
2022-09-27T14:08:38.226Z,5.77
2022-09-27T14:11:15.669Z,5.80
2022-09-27T14:13:48.401Z,8.17
2022-09-27T14:16:20.858Z,6.07
2022-09-27T14:18:58.052Z,4.57
2022-09-27T14:21:33.674Z,5.87
2022-09-27T14:24:19.888Z,3.85
2022-09-27T14:27:22.312Z,8.80
2022-09-27T14:29:56.449Z,4.97
2022-09-27T14:32:37.394Z,4.47
2022-09-27T14:35:39.004Z,8.20
2022-09-27T14:38:35.870Z,6.43
2022-09-27T14:41:10.432Z,6.73
2022-09-27T14:43:44.425Z,4.67
2022-09-27T14:46:30.119Z,4.60
2022-09-27T14:49:22.988Z,3.05
2022-09-27T14:51:56.225Z,5.00
2022-09-27T14:54:31.262Z,3.00
2022-09-27T14:57:02.562Z,2.77
2022-09-27T14:59:35.867Z,2.80
2022-09-27T15:02:19.012Z,3.60
2022-09-27T15:04:51.570Z,1.80
2022-09-27T15:07:23.462Z,4.57
2022-09-27T15:09:55.494Z,1.20
2022-09-27T15:12:26.880Z,2.77
2022-09-27T15:14:59.319Z,2.77
2022-09-27T15:17:43.319Z,1.57
2022-09-27T15:20:34.893Z,1.37
2022-09-27T15:23:06.804Z,5.27
2022-09-27T15:25:43.531Z,3.50
2022-09-27T15:28:19.071Z,2.00
2022-09-27T15:30:56.466Z,2.05
2022-09-27T15:33:31.720Z,3.30
2022-09-27T15:36:06.003Z,1.80
2022-09-27T15:38:50.125Z,3.00
2022-09-27T15:41:21.615Z,1.23
2022-09-27T15:43:53.203Z,1.70
2022-09-27T15:46:37.177Z,2.07
2022-09-27T15:49:22.765Z,1.30
2022-09-27T15:51:56.040Z,1.70
2022-09-27T15:54:30.267Z,2.60
2022-09-27T15:57:05.166Z,1.50
2022-09-27T15:59:36.470Z,1.70
2022-09-27T16:02:16.356Z,1.67
2022-09-27T16:04:47.727Z,3.37
2022-09-27T16:07:19.037Z,3.53
2022-09-27T16:09:55.517Z,1.90
2022-09-27T16:12:30.037Z,2.20
2022-09-27T16:15:01.362Z,1.83
2022-09-27T16:17:32.634Z,2.70
2022-09-27T16:20:05.278Z,2.53
2022-09-27T16:22:36.649Z,3.33
2022-09-27T16:25:08.373Z,5.70
2022-09-27T16:27:39.913Z,4.07
2022-09-27T16:30:12.135Z,5.07
2022-09-27T16:32:48.243Z,5.23
2022-09-27T16:35:21.294Z,5.55
2022-09-27T16:37:52.632Z,6.03
2022-09-27T16:40:26.555Z,3.77
2022-09-27T16:42:58.121Z,3.73
2022-09-27T16:45:33.359Z,8.80
2022-09-27T16:48:04.710Z,3.40
2022-09-27T16:50:54.651Z,3.67
2022-09-27T16:53:25.892Z,4.13
2022-09-27T16:56:00.559Z,2.97
2022-09-27T16:58:31.885Z,3.37
2022-09-27T17:01:03.360Z,3.37
2022-09-27T17:03:34.678Z,3.27
2022-09-27T17:06:06.096Z,3.70
2022-09-27T17:08:40.897Z,4.77
2022-09-27T17:11:17.257Z,2.03
2022-09-27T17:13:49.333Z,4.03
2022-09-27T17:16:20.843Z,3.13
2022-09-27T17:18:52.342Z,2.37
2022-09-27T17:21:23.630Z,2.87
2022-09-27T17:23:54.970Z,3.27
2022-09-27T17:26:30.466Z,4.27
2022-09-27T17:29:01.955Z,5.30
2022-09-27T17:31:34.709Z,5.23
2022-09-27T17:34:08.280Z,3.17
2022-09-27T17:36:42.967Z,2.73
2022-09-27T17:39:16.924Z,3.80
2022-09-27T17:41:49.569Z,3.97
2022-09-27T17:44:21.034Z,4.60
2022-09-27T17:47:12.360Z,3.57
2022-09-27T17:50:02.522Z,2.87
2022-09-27T17:52:34.387Z,4.97
2022-09-27T17:55:05.864Z,4.17
2022-09-27T17:57:37.242Z,4.07
2022-09-27T18:00:09.237Z,2.00
2022-09-27T18:02:40.680Z,3.17
2022-09-27T18:05:12.257Z,5.87
2022-09-27T18:07:43.666Z,2.67
2022-09-27T18:10:17.593Z,2.97
2022-09-27T18:12:48.846Z,3.57
2022-09-27T18:15:21.565Z,2.77
2022-09-27T18:17:57.842Z,6.80
2022-09-27T18:20:29.468Z,2.93
2022-09-27T18:23:00.762Z,6.93
2022-09-27T18:25:32.678Z,8.33
2022-09-27T18:28:04.330Z,6.50
2022-09-27T18:30:35.757Z,6.80
2022-09-27T18:33:07.014Z,8.53
2022-09-27T18:35:38.257Z,6.77
2022-09-27T18:38:09.492Z,7.73
2022-09-27T18:40:55.534Z,16.10
2022-09-27T18:43:27.626Z,12.80
2022-09-27T18:46:30.827Z,10.30
2022-09-27T18:48:58.509Z,9.00
2022-09-27T18:51:30.810Z,5.90
2022-09-27T18:54:04.942Z,5.23
2022-09-27T18:56:39.216Z,8.83
2022-09-27T18:59:11.133Z,10.43
2022-09-27T19:01:47.181Z,7.97
2022-09-27T19:04:26.704Z,4.30
2022-09-27T19:06:58.053Z,7.87
2022-09-27T19:09:29.360Z,5.77
2022-09-27T19:12:00.715Z,11.30
2022-09-27T19:14:32.012Z,7.60
2022-09-27T19:17:03.262Z,6.07
2022-09-27T19:19:34.531Z,8.50
2022-09-27T19:22:05.896Z,6.27
2022-09-27T19:24:37.149Z,4.67
2022-09-27T19:27:08.450Z,7.47
2022-09-27T19:29:40.446Z,4.40
2022-09-27T19:32:11.674Z,4.67
2022-09-27T19:34:42.926Z,5.00
2022-09-27T19:37:14.238Z,4.43
2022-09-27T19:39:45.641Z,5.97
2022-09-27T19:42:16.962Z,4.77
2022-09-27T19:44:48.286Z,5.10
2022-09-27T19:47:19.600Z,4.80
2022-09-27T19:49:50.954Z,5.77
2022-09-27T19:52:22.331Z,7.03
2022-09-27T19:54:53.607Z,5.43
2022-09-27T19:57:24.873Z,4.03
2022-09-27T19:59:56.250Z,5.47
2022-09-27T20:02:27.618Z,4.10
2022-09-27T20:04:59.042Z,4.00
2022-09-27T20:07:30.566Z,5.07
2022-09-27T20:10:01.841Z,4.67
2022-09-27T20:12:33.132Z,4.73
2022-09-27T20:15:04.790Z,3.40
2022-09-27T20:17:36.030Z,4.43
2022-09-27T20:20:07.802Z,7.03
2022-09-27T20:22:39.075Z,4.63
2022-09-27T20:25:10.338Z,5.33
2022-09-27T20:27:41.622Z,2.87
2022-09-27T20:30:15.201Z,4.40
2022-09-27T20:33:06.410Z,5.63
2022-09-27T20:35:38.271Z,3.33
2022-09-27T20:38:09.514Z,6.00
2022-09-27T20:40:40.870Z,4.47
2022-09-27T20:43:12.203Z,3.13
2022-09-27T20:45:44.300Z,4.90
2022-09-27T20:48:15.633Z,4.70
2022-09-27T20:50:46.944Z,3.57
2022-09-27T20:53:18.205Z,8.83
2022-09-27T20:55:50.670Z,4.43
2022-09-27T20:58:23.085Z,7.07
2022-09-27T21:00:54.661Z,3.87
2022-09-27T21:03:25.917Z,7.50
2022-09-27T21:05:59.127Z,7.53
2022-09-27T21:08:33.025Z,7.23
2022-09-27T21:11:10.374Z,8.37
2022-09-27T21:13:43.320Z,5.63
2022-09-27T21:16:17.390Z,6.40
2022-09-27T21:18:53.131Z,3.23
2022-09-27T21:21:25.559Z,4.20
2022-09-27T21:23:59.409Z,5.40
2022-09-27T21:26:32.891Z,3.97
2022-09-27T21:29:08.950Z,2.67
2022-09-27T21:31:40.293Z,4.20
2022-09-27T21:34:11.586Z,4.40
2022-09-27T21:36:42.865Z,4.57
2022-09-27T21:39:15.402Z,5.70
2022-09-27T21:41:46.691Z,4.77
2022-09-27T21:44:17.938Z,7.90
2022-09-27T21:46:50.388Z,5.40
2022-09-27T21:49:21.817Z,4.70
2022-09-27T21:51:53.072Z,3.60
2022-09-27T21:54:24.319Z,4.87
2022-09-27T21:56:55.572Z,3.00
2022-09-27T21:59:26.826Z,4.63
2022-09-27T22:01:58.106Z,4.73
2022-09-27T22:04:29.445Z,6.20
2022-09-27T22:07:00.702Z,9.10
2022-09-27T22:09:32.249Z,3.40
2022-09-27T22:12:03.721Z,3.63
2022-09-27T22:14:35.092Z,3.43
2022-09-27T22:17:06.336Z,3.73
2022-09-27T22:19:37.651Z,2.90
2022-09-27T22:22:08.964Z,5.33
2022-09-27T22:24:40.290Z,3.83
2022-09-27T22:27:11.576Z,4.80
2022-09-27T22:29:42.823Z,2.27
2022-09-27T22:32:14.053Z,4.80
2022-09-27T22:34:45.692Z,4.20
2022-09-27T22:37:16.938Z,2.40
2022-09-27T22:39:48.221Z,3.40
2022-09-27T22:42:20.574Z,3.40
2022-09-27T22:44:51.845Z,2.23
2022-09-27T22:47:23.121Z,3.77
2022-09-27T22:49:55.200Z,7.13
2022-09-27T22:52:26.429Z,2.27
2022-09-27T22:54:57.677Z,4.10
2022-09-27T22:57:28.953Z,2.73
2022-09-27T23:00:00.370Z,2.70
2022-09-27T23:02:31.636Z,4.17
2022-09-27T23:05:02.941Z,4.63
2022-09-27T23:07:34.173Z,5.43
2022-09-27T23:10:06.992Z,3.40
2022-09-27T23:12:38.443Z,2.63
2022-09-27T23:15:10.466Z,5.10
2022-09-27T23:17:42.179Z,7.30
2022-09-27T23:20:14.155Z,2.70
2022-09-27T23:22:45.423Z,4.07
2022-09-27T23:25:16.744Z,2.23
2022-09-27T23:27:52.715Z,3.60
2022-09-27T23:30:25.604Z,2.75
2022-09-27T23:32:56.848Z,3.13
2022-09-27T23:35:30.935Z,5.43
2022-09-27T23:38:02.173Z,4.67
2022-09-27T23:40:35.895Z,4.43
2022-09-27T23:43:07.217Z,5.73
2022-09-27T23:45:38.620Z,4.97
2022-09-27T23:48:10.956Z,3.50
2022-09-27T23:50:44.100Z,80.40
2022-09-27T23:53:15.726Z,51.50
2022-09-27T23:55:48.544Z,103.37
2022-09-27T23:58:19.956Z,99.57
